Pagrindinis puslapis
METAR-TAF:

METAR-TAF

Oro uostai :

Palangos oro uostas

Palanga, Lietuva

platuma: 55-55-12N, ilguma: 021-03E, Aukštis: 10 m

Dabartinis oras

Ataskaita buvo paskelbta 26 minutes, ne 06:20 UTC
Vėjas 3 kt iš Vakarų/Šiaurės Vakarų, svyruoja nuo Vakarų/Pietvakarių ir Šiaurės/Šiaurės Vakarų
Temperatūra 7°C
Drėgmė 81%
Slėgis 1023 hPa
Matomumas 10 km arba daugiau

METAR: EYPA 100620Z AUTO 29003KT 240V330 9999 NCD 07/04 Q1023

Laikas: 09:46 (06:46 UTC)

Prognozė

Ataskaita buvo paskelbta 1 valandą ir 46 minutes, ne 05:00 UTC
Prognozė galioja nuo 10 metu 06 UTC su 11 metu 06 UTC
Vėjas 4 kt nuo kintamojo kryptimis
Matomumas: 9000 m
Laikinai
nuo 10 metu 09 UTC su 10 metu 15 UTC
Vėjas 14 kt iš Šiaurės Vakarų
Laikinai
nuo 10 metu 18 UTC su 10 metu 24 UTC
Matomumas: 3000 m
Išsisklaidę debesys ne aukštis 500 ft
rūkana
Laikinai
nuo 11 metu 00 UTC su 11 metu 06 UTC
Matomumas: 0300 m
ne aukštis 200 ft
rūkas

TAF: EYPA 100500Z 1006/1106 VRB04KT 9000 NSC TEMPO 1009/1015 31014KT TEMPO 1018/1024 3000 BR SCT005 TEMPO 1100/1106 0300 FG VV002

Orai ataskaitas ir orų prognozės (METAR, TAF).

turimą stotys yra geltonos ir raudonos taškus žemėlapyje.

Perkelti pele per norėdami pamatyti stoties vardą.

Tada spustelėkite, norėdami matyti oro stebėjimo ir prognozės.

Norėdami pakeisti žemėlapį: spustelėkite ant žalios mygtukų su juodo kryžiaus žemyn,; žalią mygtuką su brūkšneliu, jei norite nutolinti; arba žalių rodyklių gretimoms žemėlapius.


METAR-TAF: